createdAt,value
2023-02-14T00:03:12.178Z,4.65
2023-02-14T00:05:41.852Z,6.13
2023-02-14T00:08:11.193Z,5.97
2023-02-14T00:10:42.263Z,5.78
2023-02-14T00:13:11.552Z,6.40
2023-02-14T00:15:40.635Z,5.40
2023-02-14T00:18:10.275Z,5.47
2023-02-14T00:20:40.006Z,4.90
2023-02-14T00:23:09.386Z,5.65
2023-02-14T00:25:39.452Z,6.07
2023-02-14T00:28:10.237Z,5.47
2023-02-14T00:30:40.176Z,6.35
2023-02-14T00:33:09.514Z,6.97
2023-02-14T00:35:40.118Z,5.90
2023-02-14T00:38:09.422Z,6.07
2023-02-14T00:40:39.343Z,5.32
2023-02-14T00:43:10.127Z,6.03
2023-02-14T00:45:39.946Z,6.53
2023-02-14T00:48:09.241Z,6.22
2023-02-14T00:50:39.106Z,6.07
2023-02-14T00:53:08.415Z,5.40
2023-02-14T00:55:38.165Z,5.45
2023-02-14T00:58:08.888Z,6.03
2023-02-14T01:00:38.766Z,5.97
2023-02-14T01:03:08.160Z,6.80
2023-02-14T01:05:38.000Z,6.15
2023-02-14T01:08:07.810Z,6.32
2023-02-14T01:10:39.361Z,5.87
2023-02-14T01:13:10.136Z,6.38
2023-02-14T01:15:43.155Z,5.85
2023-02-14T01:18:12.711Z,6.68
2023-02-14T01:20:42.791Z,6.82
2023-02-14T01:23:12.545Z,6.60
2023-02-14T01:25:42.458Z,6.70
2023-02-14T01:28:13.184Z,7.97
2023-02-14T01:30:42.974Z,6.60
2023-02-14T01:33:12.307Z,6.00
2023-02-14T01:35:42.090Z,5.97
2023-02-14T01:38:11.863Z,6.10
2023-02-14T01:40:44.948Z,5.57
2023-02-14T01:43:17.640Z,6.28
2023-02-14T01:45:47.407Z,5.82
2023-02-14T01:48:17.767Z,5.53
2023-02-14T01:50:49.122Z,6.35
2023-02-14T01:55:55.642Z,6.78
2023-02-14T01:58:28.719Z,4.93
2023-02-14T02:00:59.006Z,5.68
2023-02-14T02:03:33.169Z,9.50
2023-02-14T02:06:11.030Z,5.20
2023-02-14T02:08:46.338Z,5.35
2023-02-14T02:11:16.038Z,4.97
2023-02-14T02:13:47.169Z,6.72
2023-02-14T02:16:43.319Z,6.30
2023-02-14T02:19:47.347Z,6.32
2023-02-14T02:23:10.932Z,4.82
2023-02-14T02:26:01.700Z,5.25
2023-02-14T02:29:03.798Z,5.10
2023-02-14T02:32:02.027Z,5.93
2023-02-14T02:37:47.510Z,4.95
2023-02-14T02:40:30.600Z,5.33
2023-02-14T02:43:11.793Z,6.82
2023-02-14T02:46:02.323Z,9.02
2023-02-14T02:48:41.318Z,5.97
2023-02-14T02:51:34.019Z,5.72
2023-02-14T02:54:13.153Z,5.93
2023-02-14T02:56:51.417Z,6.45
2023-02-14T02:59:25.678Z,6.97
2023-02-14T03:02:01.444Z,5.28
2023-02-14T03:04:53.567Z,7.20
2023-02-14T03:07:39.487Z,8.85
2023-02-14T03:10:16.220Z,6.28
2023-02-14T03:13:15.551Z,7.25
2023-02-14T03:16:18.935Z,6.88
2023-02-14T03:19:09.698Z,6.60
2023-02-14T03:21:47.787Z,7.00
2023-02-14T03:24:26.885Z,6.47
2023-02-14T03:27:05.723Z,7.05
2023-02-14T03:29:45.483Z,6.90
2023-02-14T03:32:21.434Z,6.60
2023-02-14T03:34:56.990Z,6.28
2023-02-14T03:37:31.083Z,6.13
2023-02-14T03:40:07.970Z,6.30
2023-02-14T03:42:41.954Z,6.93
2023-02-14T03:45:15.485Z,7.35
2023-02-14T03:47:47.911Z,8.35
2023-02-14T03:50:21.471Z,7.25
2023-02-14T03:52:53.812Z,5.75
2023-02-14T03:55:33.076Z,6.43
2023-02-14T03:58:12.199Z,6.38
2023-02-14T04:00:45.297Z,9.52
2023-02-14T04:03:18.469Z,5.43
2023-02-14T04:05:52.649Z,6.30
2023-02-14T04:08:26.500Z,6.40
2023-02-14T04:10:58.401Z,6.60
2023-02-14T04:13:29.439Z,6.22
2023-02-14T04:15:59.143Z,6.38
2023-02-14T04:18:45.723Z,5.80
2023-02-14T04:21:15.383Z,6.22
2023-02-14T04:23:44.904Z,6.07
2023-02-14T04:26:14.610Z,5.80
2023-02-14T04:28:45.324Z,6.43
2023-02-14T04:33:45.177Z,5.90
2023-02-14T04:36:14.999Z,5.72
2023-02-14T04:38:44.530Z,7.25
2023-02-14T04:41:14.171Z,6.57
2023-02-14T04:43:44.930Z,5.85
2023-02-14T04:48:44.308Z,7.22
2023-02-14T04:51:13.957Z,6.57
2023-02-14T04:53:44.232Z,6.78
2023-02-14T04:56:13.838Z,6.57
2023-02-14T04:58:44.659Z,7.28
2023-02-14T05:01:14.587Z,6.50
2023-02-14T05:03:43.951Z,5.82
2023-02-14T05:06:13.961Z,6.65
2023-02-14T05:08:43.273Z,6.85
2023-02-14T05:11:12.931Z,6.65
2023-02-14T05:13:42.476Z,6.25
2023-02-14T05:16:13.646Z,6.40
2023-02-14T05:18:43.031Z,6.88
2023-02-14T05:21:13.130Z,7.07
2023-02-14T05:23:43.631Z,7.22
2023-02-14T05:26:13.630Z,7.63
2023-02-14T05:28:42.955Z,7.20
2023-02-14T05:31:14.543Z,7.13
2023-02-14T05:33:44.012Z,7.68
2023-02-14T05:36:13.764Z,7.20
2023-02-14T05:38:43.186Z,5.85
2023-02-14T05:41:12.915Z,6.82
2023-02-14T05:43:42.288Z,6.50
2023-02-14T05:46:12.180Z,6.22
2023-02-14T05:48:43.070Z,5.88
2023-02-14T05:51:13.059Z,5.57
2023-02-14T05:53:42.566Z,5.50
2023-02-14T05:56:12.392Z,6.13
2023-02-14T05:58:41.805Z,5.97
2023-02-14T06:01:11.581Z,6.00
2023-02-14T06:03:42.434Z,9.02
2023-02-14T06:06:12.819Z,6.60
2023-02-14T06:08:42.109Z,6.88
2023-02-14T06:11:11.722Z,6.25
2023-02-14T06:13:41.796Z,6.88
2023-02-14T06:16:11.695Z,6.88
2023-02-14T06:18:42.683Z,8.02
2023-02-14T06:21:12.336Z,7.65
2023-02-14T06:23:41.757Z,7.03
2023-02-14T06:26:11.805Z,8.40
2023-02-14T06:28:41.462Z,7.10
2023-02-14T06:31:16.946Z,6.22
2023-02-14T06:33:47.914Z,6.30
2023-02-14T06:36:17.706Z,6.40
2023-02-14T06:38:48.192Z,8.50
2023-02-14T06:41:18.661Z,4.88
2023-02-14T06:43:49.548Z,4.90
2023-02-14T06:46:20.144Z,5.68
2023-02-14T06:48:51.034Z,4.72
2023-02-14T06:51:20.802Z,6.25
2023-02-14T06:53:50.238Z,5.40
2023-02-14T06:56:19.671Z,5.93
2023-02-14T06:58:49.618Z,5.22
2023-02-14T07:01:19.047Z,5.72
2023-02-14T07:03:50.285Z,5.47
2023-02-14T07:06:19.553Z,5.85
2023-02-14T07:08:50.059Z,6.25
2023-02-14T07:11:19.404Z,4.60
2023-02-14T07:13:49.614Z,6.22
2023-02-14T07:16:19.159Z,5.53
2023-02-14T07:18:50.824Z,5.60
2023-02-14T07:21:20.272Z,6.18
2023-02-14T07:23:50.426Z,5.95
2023-02-14T07:26:19.808Z,5.30
2023-02-14T07:28:50.276Z,5.82
2023-02-14T07:31:21.376Z,5.73
2023-02-14T07:33:53.327Z,6.80
2023-02-14T07:36:22.686Z,5.68
2023-02-14T07:38:52.316Z,5.97
2023-02-14T07:41:21.907Z,5.65
2023-02-14T07:43:51.651Z,6.20
2023-02-14T07:46:20.955Z,8.93
2023-02-14T07:48:52.269Z,6.82
2023-02-14T07:51:21.688Z,6.72
2023-02-14T07:53:51.793Z,6.53
2023-02-14T07:56:21.221Z,6.22
2023-02-14T07:58:51.232Z,6.15
2023-02-14T08:01:21.335Z,5.55
2023-02-14T08:03:54.901Z,4.78
2023-02-14T08:06:26.330Z,5.85
2023-02-14T08:08:56.083Z,5.75
2023-02-14T08:11:42.818Z,6.75
2023-02-14T08:14:13.599Z,6.18
2023-02-14T08:16:43.002Z,6.18
2023-02-14T08:19:14.158Z,6.25
2023-02-14T08:21:43.540Z,4.90
2023-02-14T08:24:13.430Z,7.15
2023-02-14T08:26:42.674Z,5.10
2023-02-14T08:29:16.860Z,5.78
2023-02-14T08:31:47.784Z,6.00
2023-02-14T08:34:18.933Z,7.00
2023-02-14T08:36:49.099Z,6.10
2023-02-14T08:39:18.704Z,7.80
2023-02-14T08:41:47.938Z,5.30
2023-02-14T08:44:18.470Z,5.47
2023-02-14T08:46:48.341Z,6.03
2023-02-14T08:49:19.573Z,6.22
2023-02-14T08:51:49.016Z,5.50
2023-02-14T08:54:18.982Z,5.33
2023-02-14T08:56:48.965Z,6.60
2023-02-14T08:59:18.692Z,6.28
2023-02-14T09:01:48.002Z,7.75
2023-02-14T09:04:19.271Z,7.35
2023-02-14T09:06:48.625Z,6.63
2023-02-14T09:09:19.654Z,6.72
2023-02-14T09:11:49.074Z,6.35
2023-02-14T09:14:21.142Z,6.65
2023-02-14T09:16:50.570Z,6.60
2023-02-14T09:19:21.810Z,6.80
2023-02-14T09:21:51.218Z,6.70
2023-02-14T09:24:20.867Z,6.47
2023-02-14T09:26:50.667Z,7.18
2023-02-14T09:29:20.452Z,6.63
2023-02-14T09:31:50.001Z,7.20
2023-02-14T09:34:38.951Z,7.22
2023-02-14T09:37:08.387Z,7.43
2023-02-14T09:39:38.821Z,7.00
2023-02-14T09:42:41.440Z,8.82
2023-02-14T09:45:15.591Z,7.50
2023-02-14T09:47:49.004Z,7.32
2023-02-14T09:50:25.692Z,7.18
2023-02-14T09:52:58.815Z,7.03
2023-02-14T09:55:36.698Z,7.30
2023-02-14T09:58:13.662Z,6.78
2023-02-14T10:00:47.850Z,7.68
2023-02-14T10:03:56.195Z,8.10
2023-02-14T10:06:43.567Z,7.03
2023-02-14T10:09:36.948Z,6.00
2023-02-14T10:12:11.325Z,6.65
2023-02-14T10:14:41.925Z,8.38
2023-02-14T10:17:18.004Z,6.82
2023-02-14T10:19:52.548Z,5.97
2023-02-14T10:22:28.723Z,6.88
2023-02-14T10:25:02.441Z,6.18
2023-02-14T10:27:35.126Z,6.90
2023-02-14T10:30:12.790Z,7.03
2023-02-14T10:32:48.036Z,6.55
2023-02-14T10:35:31.365Z,7.90
2023-02-14T10:38:17.710Z,7.13
2023-02-14T10:41:03.577Z,8.15
2023-02-14T10:43:39.755Z,6.60
2023-02-14T10:46:18.607Z,7.95
2023-02-14T10:48:55.367Z,6.07
2023-02-14T10:51:34.289Z,6.70
2023-02-14T10:54:19.743Z,7.10
2023-02-14T10:57:00.550Z,7.75
2023-02-14T10:59:49.768Z,8.05
2023-02-14T11:02:35.759Z,6.78
2023-02-14T11:05:32.215Z,6.82
2023-02-14T11:08:23.745Z,6.85
2023-02-14T11:11:13.681Z,7.18
2023-02-14T11:13:56.755Z,6.10
2023-02-14T11:16:47.793Z,5.60
2023-02-14T11:19:27.055Z,5.38
2023-02-14T11:22:17.751Z,5.10
2023-02-14T11:25:19.721Z,4.82
2023-02-14T11:28:12.804Z,5.18
2023-02-14T11:30:56.884Z,5.53
2023-02-14T11:33:48.751Z,4.93
2023-02-14T11:36:25.310Z,5.40
2023-02-14T11:39:33.762Z,6.20
2023-02-14T11:42:12.178Z,5.28
2023-02-14T11:45:06.757Z,6.30
2023-02-14T11:47:44.682Z,4.88
2023-02-14T11:50:35.752Z,6.88
2023-02-14T11:53:18.736Z,6.38
2023-02-14T11:56:08.735Z,5.07
2023-02-14T11:58:48.163Z,5.45
2023-02-14T12:01:40.913Z,5.28
2023-02-14T12:04:26.599Z,5.43
2023-02-14T12:07:28.734Z,4.55
2023-02-14T12:10:29.312Z,5.22
2023-02-14T12:13:32.731Z,5.70
2023-02-14T12:16:14.738Z,4.57
2023-02-14T12:19:10.739Z,5.03
2023-02-14T12:21:55.192Z,5.07
2023-02-14T12:24:48.737Z,5.20
2023-02-14T12:27:36.759Z,5.47
2023-02-14T12:30:35.734Z,5.40
2023-02-14T12:33:28.795Z,7.00
2023-02-14T12:36:17.915Z,5.68
2023-02-14T12:39:15.896Z,5.43
2023-02-14T12:42:00.239Z,5.90
2023-02-14T12:44:57.751Z,5.45
2023-02-14T12:47:47.260Z,5.32
2023-02-14T12:50:41.761Z,5.00
2023-02-14T12:53:45.892Z,4.68
2023-02-14T12:56:36.754Z,5.38
2023-02-14T12:59:35.310Z,5.35
2023-02-14T13:03:00.811Z,6.13
2023-02-14T13:05:58.300Z,5.20
2023-02-14T13:08:55.740Z,6.07
2023-02-14T13:11:48.162Z,5.10
2023-02-14T13:14:43.747Z,5.72
2023-02-14T13:17:35.612Z,4.85
2023-02-14T13:20:48.739Z,6.07
2023-02-14T13:23:42.739Z,5.53
2023-02-14T13:26:21.283Z,5.40
2023-02-14T13:29:14.730Z,5.10
2023-02-14T13:31:51.388Z,5.10
2023-02-14T13:34:43.762Z,6.50
2023-02-14T13:37:28.742Z,6.13
2023-02-14T13:40:22.742Z,5.60
2023-02-14T13:43:07.801Z,6.32
2023-02-14T13:46:09.763Z,5.45
2023-02-14T13:49:02.721Z,5.60
2023-02-14T13:51:56.190Z,6.15
2023-02-14T13:54:51.836Z,5.78
2023-02-14T13:57:34.414Z,5.38
2023-02-14T14:00:38.090Z,5.97
2023-02-14T14:03:14.103Z,5.68
2023-02-14T14:06:03.654Z,5.32
2023-02-14T14:08:44.693Z,5.10
2023-02-14T14:11:59.985Z,5.47
2023-02-14T14:14:39.980Z,5.47
2023-02-14T14:17:26.367Z,5.30
2023-02-14T14:19:58.283Z,5.45
2023-02-14T14:22:28.686Z,5.18
2023-02-14T14:25:00.963Z,5.13
2023-02-14T14:27:35.619Z,5.57
2023-02-14T14:30:08.249Z,5.03
2023-02-14T14:32:39.123Z,4.38
2023-02-14T14:35:19.874Z,5.25
2023-02-14T14:37:51.827Z,4.63
2023-02-14T14:40:26.669Z,4.32
2023-02-14T14:42:57.305Z,5.30
2023-02-14T14:47:59.120Z,4.47
2023-02-14T14:50:33.325Z,5.55
2023-02-14T14:53:05.282Z,5.32
2023-02-14T14:55:38.199Z,5.22
2023-02-14T14:58:09.991Z,5.32
2023-02-14T15:00:42.776Z,5.72
2023-02-14T15:03:18.614Z,6.85
2023-02-14T15:05:51.342Z,5.20
2023-02-14T15:08:32.409Z,6.75
2023-02-14T15:11:06.357Z,7.53
2023-02-14T15:13:54.227Z,6.00
2023-02-14T15:16:27.468Z,8.25
2023-02-14T15:19:00.862Z,7.15
2023-02-14T15:21:37.560Z,6.63
2023-02-14T15:24:12.673Z,6.35
2023-02-14T15:26:53.516Z,7.10
2023-02-14T15:29:37.730Z,7.38
2023-02-14T15:35:03.758Z,6.10
2023-02-14T15:37:48.826Z,5.93
2023-02-14T15:40:34.762Z,7.25
2023-02-14T15:43:25.666Z,7.38
2023-02-14T15:45:58.097Z,6.90
2023-02-14T15:48:31.264Z,6.53
2023-02-14T15:51:02.498Z,8.38
2023-02-14T15:53:40.951Z,8.40
2023-02-14T15:56:14.080Z,7.65
2023-02-14T15:58:46.461Z,7.80
2023-02-14T16:01:16.599Z,8.13
2023-02-14T16:03:52.428Z,7.47
2023-02-14T16:06:34.448Z,8.02
2023-02-14T16:09:07.610Z,7.72
2023-02-14T16:11:38.481Z,7.85
2023-02-14T16:14:30.644Z,7.88
2023-02-14T16:17:02.217Z,8.10
2023-02-14T16:19:41.760Z,8.55
2023-02-14T16:22:13.470Z,8.35
2023-02-14T16:24:44.626Z,8.70
2023-02-14T16:27:21.278Z,7.65
2023-02-14T16:30:10.787Z,8.60
2023-02-14T16:32:46.350Z,7.97
2023-02-14T16:35:36.764Z,7.40
2023-02-14T16:38:12.265Z,7.85
2023-02-14T16:41:04.750Z,9.43
2023-02-14T16:43:47.158Z,8.23
2023-02-14T16:46:31.856Z,8.68
2023-02-14T16:49:14.281Z,8.38
2023-02-14T16:51:56.809Z,7.70
2023-02-14T16:54:39.171Z,7.38
2023-02-14T16:57:28.716Z,7.50
2023-02-14T17:00:13.375Z,8.35
2023-02-14T17:02:55.773Z,8.13
2023-02-14T17:05:39.685Z,7.68
2023-02-14T17:08:23.720Z,7.72
2023-02-14T17:11:12.738Z,7.50
2023-02-14T17:13:50.981Z,7.97
2023-02-14T17:16:39.730Z,7.93
2023-02-14T17:19:16.820Z,7.72
2023-02-14T17:22:05.979Z,8.68
2023-02-14T17:24:48.725Z,8.98
2023-02-14T17:27:37.714Z,8.50
2023-02-14T17:30:16.956Z,10.65
2023-02-14T17:33:05.749Z,8.75
2023-02-14T17:35:48.734Z,7.93
2023-02-14T17:38:31.425Z,8.80
2023-02-14T17:41:25.748Z,8.88
2023-02-14T17:44:08.678Z,9.48
2023-02-14T17:46:47.928Z,9.43
2023-02-14T17:49:17.419Z,8.95
2023-02-14T17:51:47.074Z,8.65
2023-02-14T17:54:16.481Z,10.20
2023-02-14T17:56:46.084Z,9.48
2023-02-14T17:59:15.455Z,9.32
2023-02-14T18:01:47.845Z,8.30
2023-02-14T18:04:17.235Z,8.38
2023-02-14T18:06:47.217Z,9.70
2023-02-14T18:09:16.867Z,8.73
2023-02-14T18:11:47.024Z,7.95
2023-02-14T18:14:17.143Z,9.73
2023-02-14T18:16:48.842Z,8.40
2023-02-14T18:19:18.665Z,7.90
2023-02-14T18:21:48.648Z,8.60
2023-02-14T18:24:17.985Z,8.48
2023-02-14T18:26:47.990Z,11.43
2023-02-14T18:29:17.357Z,11.68
2023-02-14T18:31:48.679Z,10.38
2023-02-14T18:36:47.325Z,9.98
2023-02-14T18:39:17.470Z,10.30
2023-02-14T18:41:47.822Z,10.05
2023-02-14T18:44:17.220Z,9.77
2023-02-14T18:46:48.373Z,10.10
2023-02-14T18:49:17.962Z,9.82
2023-02-14T18:51:55.273Z,9.60
2023-02-14T18:54:37.704Z,9.13
2023-02-14T18:57:16.055Z,7.97
2023-02-14T18:59:45.516Z,8.82
2023-02-14T19:02:17.069Z,8.38
2023-02-14T19:04:46.487Z,8.57
2023-02-14T19:07:16.247Z,8.93
2023-02-14T19:09:45.717Z,9.23
2023-02-14T19:12:15.359Z,8.65
2023-02-14T19:14:45.008Z,9.40
2023-02-14T19:17:16.120Z,9.52
2023-02-14T19:19:45.693Z,8.75
2023-02-14T19:22:15.472Z,9.65
2023-02-14T19:24:44.990Z,8.95
2023-02-14T19:27:14.675Z,9.10
2023-02-14T19:29:44.146Z,9.75
2023-02-14T19:32:13.995Z,10.13
2023-02-14T19:34:44.980Z,9.68
2023-02-14T19:37:14.915Z,9.60
2023-02-14T19:39:57.768Z,9.23
2023-02-14T19:42:34.036Z,9.18
2023-02-14T19:45:11.514Z,8.63
2023-02-14T19:47:48.396Z,9.75
2023-02-14T19:50:21.926Z,10.30
2023-02-14T19:52:52.150Z,9.30
2023-02-14T19:55:23.752Z,9.82
2023-02-14T19:58:06.723Z,9.60
2023-02-14T20:00:48.715Z,9.98
2023-02-14T20:03:31.289Z,8.48
2023-02-14T20:06:15.723Z,10.73
2023-02-14T20:09:05.736Z,10.20
2023-02-14T20:11:46.830Z,11.07
2023-02-14T20:14:50.495Z,11.68
2023-02-14T20:17:20.899Z,9.95
2023-02-14T20:19:51.218Z,10.93
2023-02-14T20:24:53.152Z,10.25
2023-02-14T20:27:24.897Z,11.50
2023-02-14T20:29:56.100Z,10.70
2023-02-14T20:32:25.428Z,10.13
2023-02-14T20:34:57.887Z,10.90
2023-02-14T20:37:28.792Z,9.65
2023-02-14T20:39:58.804Z,10.00
2023-02-14T20:42:28.326Z,9.60
2023-02-14T20:44:58.098Z,13.38
2023-02-14T20:47:40.797Z,11.68
2023-02-14T20:50:17.017Z,12.77
2023-02-14T20:52:48.096Z,9.85
2023-02-14T20:55:18.741Z,10.95
2023-02-14T20:57:48.007Z,9.95
2023-02-14T21:00:18.196Z,12.35
2023-02-14T21:03:01.710Z,11.05
2023-02-14T21:05:52.734Z,10.10
2023-02-14T21:08:29.659Z,11.32
2023-02-14T21:11:06.971Z,10.90
2023-02-14T21:13:36.677Z,11.43
2023-02-14T21:16:14.708Z,10.90
2023-02-14T21:18:51.829Z,9.43
2023-02-14T21:21:23.999Z,11.13
2023-02-14T21:23:55.190Z,11.63
2023-02-14T21:26:25.134Z,10.18
2023-02-14T21:28:54.464Z,10.32
2023-02-14T21:31:25.935Z,9.25
2023-02-14T21:34:05.078Z,9.38
2023-02-14T21:36:47.759Z,9.30
2023-02-14T21:39:21.112Z,10.30
2023-02-14T21:41:50.982Z,9.48
2023-02-14T21:44:43.705Z,9.10
2023-02-14T21:47:13.740Z,10.15
2023-02-14T21:50:00.231Z,10.65
2023-02-14T21:52:30.789Z,8.73
2023-02-14T21:55:01.618Z,9.15
2023-02-14T21:57:32.019Z,10.35
2023-02-14T22:00:01.296Z,11.38
2023-02-14T22:02:31.532Z,9.02
2023-02-14T22:05:01.367Z,10.23
2023-02-14T22:07:30.992Z,9.20
2023-02-14T22:10:02.208Z,10.80
2023-02-14T22:12:31.928Z,9.88
2023-02-14T22:15:01.708Z,10.75
2023-02-14T22:17:31.708Z,10.70
2023-02-14T22:20:01.065Z,13.00
2023-02-14T22:22:30.838Z,12.55
2023-02-14T22:25:02.274Z,13.60
2023-02-14T22:27:31.955Z,11.70
2023-02-14T22:30:01.556Z,10.48
2023-02-14T22:32:32.255Z,11.23
2023-02-14T22:35:01.549Z,11.90
2023-02-14T22:37:31.953Z,11.00
2023-02-14T22:40:02.699Z,10.60
2023-02-14T22:42:33.469Z,10.48
2023-02-14T22:45:02.982Z,12.65
2023-02-14T22:47:34.056Z,10.25
2023-02-14T22:50:03.514Z,13.75
2023-02-14T22:52:33.194Z,10.15
2023-02-14T22:55:04.048Z,11.18
2023-02-14T22:57:33.748Z,11.20
2023-02-14T23:00:03.243Z,11.80
2023-02-14T23:02:32.955Z,11.95
2023-02-14T23:05:02.292Z,11.57
2023-02-14T23:07:32.420Z,11.75
2023-02-14T23:10:03.186Z,10.95
2023-02-14T23:12:49.858Z,11.30
2023-02-14T23:15:36.792Z,11.93
2023-02-14T23:18:24.332Z,10.52
2023-02-14T23:21:11.495Z,12.98
2023-02-14T23:23:41.120Z,11.55
2023-02-14T23:26:11.840Z,12.00
2023-02-14T23:31:10.821Z,11.25
2023-02-14T23:33:40.480Z,11.90
2023-02-14T23:36:09.977Z,13.27
2023-02-14T23:38:39.988Z,12.65
2023-02-14T23:41:31.007Z,12.27
2023-02-14T23:44:00.602Z,12.18
2023-02-14T23:46:30.028Z,12.93
2023-02-14T23:49:00.217Z,12.63
2023-02-14T23:51:30.087Z,12.40
2023-02-14T23:53:59.818Z,13.15
2023-02-14T23:56:31.087Z,11.93
2023-02-14T23:59:00.939Z,11.80
